Time;durP1;ratioP1;P1;durP2;ratioP2;P2;SDS_P1;SDS_P2;PMS_P1;PMS_P2;Temp;Humidity;BMP_temperature;BMP_pressure;BME280_temperature;BME280_humidity;BME280_pressure;Samples;Min_cycle;Max_cycle;Signal;HPM_P1;HPM_P2
2024/03/23 00:01:43;;;;;;;12.03;2.23;;;;;;;;;;5072434;28;20230;-83
2024/03/23 00:04:12;;;;;;;20.43;3.20;;;;;;;;;;5072056;28;20296;-82
2024/03/23 00:06:40;;;;;;;16.97;2.50;;;;;;;;;;5071405;28;20225;-83
2024/03/23 00:09:09;;;;;;;12.93;2.40;;;;;;;;;;5072254;28;20788;-82
2024/03/23 00:11:37;;;;;;;14.07;2.73;;;;;;;;;;5072066;28;20286;-83
2024/03/23 00:14:07;;;;;;;15.37;2.80;;;;;;;;;;5087131;28;20207;-82
2024/03/23 00:16:35;;;;;;;14.13;2.30;;;;;;;;;;5092885;28;20198;-82
2024/03/23 00:19:04;;;;;;;13.37;2.37;;;;;;;;;;5091831;28;20574;-83
2024/03/23 00:21:35;;;;;;;12.90;3.13;;;;;;;;;;5092003;28;20198;-83
2024/03/23 00:24:04;;;;;;;17.03;2.53;;;;;;;;;;5091939;28;20278;-83
2024/03/23 00:26:32;;;;;;;11.93;2.43;;;;;;;;;;5091028;28;20321;-82
2024/03/23 00:29:03;;;;;;;17.97;2.60;;;;;;;;;;5092243;28;20225;-83
2024/03/23 00:31:31;;;;;;;14.07;2.80;;;;;;;;;;5092318;28;20203;-83
2024/03/23 00:34:00;;;;;;;14.70;2.10;;;;;;;;;;5092318;28;20203;-83
2024/03/23 00:36:26;;;;;;;12.90;2.33;;;;;;;;;;5092186;28;20277;-82
2024/03/23 00:38:54;;;;;;;16.17;2.57;;;;;;;;;;5092301;28;20226;-82
2024/03/23 00:41:21;;;;;;;10.87;2.70;;;;;;;;;;5091956;28;20625;-83
2024/03/23 00:43:48;;;;;;;14.67;2.97;;;;;;;;;;5091855;28;20237;-82
2024/03/23 00:46:15;;;;;;;11.17;2.43;;;;;;;;;;5091431;28;20709;-83
2024/03/23 00:48:45;;;;;;;17.13;2.80;;;;;;;;;;5091328;28;20202;-83
2024/03/23 00:51:13;;;;;;;14.93;2.43;;;;;;;;;;5091713;28;20650;-83
2024/03/23 00:53:41;;;;;;;12.33;2.23;;;;;;;;;;5092027;28;20571;-83
2024/03/23 00:56:07;;;;;;;16.40;2.77;;;;;;;;;;5091421;28;20280;-82
2024/03/23 00:58:35;;;;;;;13.20;2.20;;;;;;;;;;5091587;28;20289;-82
2024/03/23 01:01:03;;;;;;;9.93;2.30;;;;;;;;;;5091718;28;20228;-82
2024/03/23 01:03:30;;;;;;;16.33;2.60;;;;;;;;;;5091259;28;20544;-82
2024/03/23 01:05:59;;;;;;;18.30;2.90;;;;;;;;;;5091420;28;20225;-83
2024/03/23 01:08:26;;;;;;;11.20;2.27;;;;;;;;;;5091458;28;20229;-82
2024/03/23 01:10:58;;;;;;;15.33;2.60;;;;;;;;;;5090648;28;20696;-84
2024/03/23 01:13:25;;;;;;;11.37;2.27;;;;;;;;;;5091498;28;20255;-83
2024/03/23 01:15:51;;;;;;;14.57;2.63;;;;;;;;;;5091763;28;20618;-83
2024/03/23 01:18:18;;;;;;;13.17;2.63;;;;;;;;;;5091427;28;20208;-83
2024/03/23 01:20:45;;;;;;;15.67;2.10;;;;;;;;;;5091100;28;20229;-83
2024/03/23 01:23:12;;;;;;;14.27;2.50;;;;;;;;;;5090698;28;20206;-82
2024/03/23 01:25:38;;;;;;;9.30;2.40;;;;;;;;;;5091277;28;20241;-83
2024/03/23 01:28:07;;;;;;;13.73;2.53;;;;;;;;;;5091008;28;20205;-82
2024/03/23 01:30:34;;;;;;;16.17;2.60;;;;;;;;;;5091256;28;20233;-82
2024/03/23 01:33:01;;;;;;;15.27;2.80;;;;;;;;;;5090954;28;20711;-83
2024/03/23 01:35:27;;;;;;;14.83;2.70;;;;;;;;;;5090966;28;20236;-83
2024/03/23 01:37:54;;;;;;;16.33;3.50;;;;;;;;;;5091117;28;20204;-83
2024/03/23 01:40:21;;;;;;;16.90;3.13;;;;;;;;;;5091071;28;20193;-83
2024/03/23 01:42:57;;;;;;;16.73;2.97;;;;;;;;;;5090924;28;20228;-82
2024/03/23 01:45:24;;;;;;;14.37;2.77;;;;;;;;;;5090953;28;20201;-82
2024/03/23 01:47:52;;;;;;;14.50;2.90;;;;;;;;;;5091456;28;20225;-83
2024/03/23 01:50:19;;;;;;;21.50;3.10;;;;;;;;;;5091105;28;20212;-82
2024/03/23 01:52:46;;;;;;;14.70;2.90;;;;;;;;;;5090701;28;20202;-82
2024/03/23 01:55:12;;;;;;;16.07;2.43;;;;;;;;;;5090330;28;20230;-83
2024/03/23 01:57:39;;;;;;;14.27;2.50;;;;;;;;;;5091029;28;20788;-83
2024/03/23 02:00:06;;;;;;;10.73;2.40;;;;;;;;;;5091023;28;20233;-83
2024/03/23 02:02:35;;;;;;;12.07;2.03;;;;;;;;;;5090789;28;20658;-83
2024/03/23 02:05:01;;;;;;;11.17;2.10;;;;;;;;;;5090248;28;20230;-83
2024/03/23 02:07:28;;;;;;;11.20;2.03;;;;;;;;;;5090618;28;20229;-84
2024/03/23 02:09:55;;;;;;;8.43;2.00;;;;;;;;;;5090005;28;20667;-82
2024/03/23 02:12:23;;;;;;;5.87;1.50;;;;;;;;;;5094440;28;20189;-83
2024/03/23 02:14:49;;;;;;;10.67;2.03;;;;;;;;;;5094830;28;20236;-83
2024/03/23 02:17:16;;;;;;;9.00;1.50;;;;;;;;;;5094414;28;20675;-83
2024/03/23 02:19:44;;;;;;;14.67;1.63;;;;;;;;;;5095043;28;20194;-83
2024/03/23 02:22:11;;;;;;;14.10;2.13;;;;;;;;;;5094111;28;20285;-84
2024/03/23 02:24:39;;;;;;;13.10;1.80;;;;;;;;;;5094070;28;20320;-83
2024/03/23 02:27:06;;;;;;;11.13;2.03;;;;;;;;;;5094599;28;20230;-83
2024/03/23 02:29:33;;;;;;;5.83;1.80;;;;;;;;;;5094595;28;20282;-84
2024/03/23 02:32:00;;;;;;;10.43;1.80;;;;;;;;;;5094590;28;20604;-83
2024/03/23 02:34:26;;;;;;;6.07;1.73;;;;;;;;;;5094661;28;20257;-83
2024/03/23 02:36:53;;;;;;;10.33;2.27;;;;;;;;;;5093756;28;20614;-82
2024/03/23 02:39:19;;;;;;;12.73;2.07;;;;;;;;;;5094413;28;20198;-83
2024/03/23 02:41:48;;;;;;;11.90;2.80;;;;;;;;;;5094322;28;20202;-82
2024/03/23 02:44:14;;;;;;;8.63;2.33;;;;;;;;;;5094771;28;20202;-83
2024/03/23 02:46:41;;;;;;;15.10;2.43;;;;;;;;;;5093443;28;20232;-83
2024/03/23 02:49:08;;;;;;;13.77;2.83;;;;;;;;;;5093913;28;20197;-82
2024/03/23 02:51:35;;;;;;;18.03;2.63;;;;;;;;;;5093888;28;20704;-83
2024/03/23 02:54:01;;;;;;;14.27;2.70;;;;;;;;;;5093910;28;20283;-83
2024/03/23 02:56:28;;;;;;;11.80;2.43;;;;;;;;;;5093842;28;20213;-83
2024/03/23 02:58:56;;;;;;;8.40;2.50;;;;;;;;;;5094020;28;20197;-82
2024/03/23 03:01:23;;;;;;;13.73;2.37;;;;;;;;;;5093590;28;20216;-84
2024/03/23 03:03:49;;;;;;;12.30;2.40;;;;;;;;;;5091304;28;20690;-82
2024/03/23 03:06:24;;;;;;;12.23;2.37;;;;;;;;;;5081184;28;20221;-83
2024/03/23 03:08:50;;;;;;;12.27;1.93;;;;;;;;;;5093279;28;20199;-82
2024/03/23 03:11:17;;;;;;;14.97;2.60;;;;;;;;;;5093554;28;20201;-83
2024/03/23 03:13:44;;;;;;;11.73;2.60;;;;;;;;;;5093685;28;20229;-83
2024/03/23 03:16:13;;;;;;;11.93;2.20;;;;;;;;;;5093576;28;20259;-83
2024/03/23 03:18:40;;;;;;;10.03;2.17;;;;;;;;;;5093420;28;20292;-83
2024/03/23 03:21:10;;;;;;;14.80;2.57;;;;;;;;;;5093211;28;20550;-81
2024/03/23 03:23:37;;;;;;;8.83;2.20;;;;;;;;;;5093136;28;20255;-83
2024/03/23 03:26:04;;;;;;;12.43;1.90;;;;;;;;;;5092638;28;20206;-82
2024/03/23 03:28:32;;;;;;;9.27;1.70;;;;;;;;;;5093500;28;20288;-84
2024/03/23 03:30:59;;;;;;;5.60;1.47;;;;;;;;;;5093827;28;20210;-83
2024/03/23 03:33:27;;;;;;;12.27;1.73;;;;;;;;;;5092832;28;20208;-83
2024/03/23 03:35:55;;;;;;;8.73;1.60;;;;;;;;;;5092451;28;20221;-83
2024/03/23 03:38:21;;;;;;;8.17;2.03;;;;;;;;;;5092970;28;20638;-82
2024/03/23 03:40:48;;;;;;;9.17;1.70;;;;;;;;;;5093384;28;20194;-84
2024/03/23 03:43:15;;;;;;;7.20;1.17;;;;;;;;;;5092967;28;20225;-84
2024/03/23 03:45:42;;;;;;;10.57;1.53;;;;;;;;;;5093072;28;20202;-82
2024/03/23 03:48:08;;;;;;;9.63;1.63;;;;;;;;;;5092449;28;20272;-83
2024/03/23 03:50:37;;;;;;;5.73;1.30;;;;;;;;;;5092170;28;20293;-83
2024/03/23 03:53:03;;;;;;;7.90;1.20;;;;;;;;;;5092825;28;20374;-83
2024/03/23 03:55:30;;;;;;;10.43;1.63;;;;;;;;;;5092572;28;20205;-83
2024/03/23 03:57:56;;;;;;;3.73;1.17;;;;;;;;;;5092179;28;20262;-83
2024/03/23 04:00:23;;;;;;;8.23;1.40;;;;;;;;;;5092734;28;20211;-83
2024/03/23 04:02:50;;;;;;;12.30;2.00;;;;;;;;;;5093030;28;20221;-82
2024/03/23 04:05:19;;;;;;;6.93;1.70;;;;;;;;;;5092045;28;20225;-81
2024/03/23 04:07:46;;;;;;;11.33;1.97;;;;;;;;;;5092602;28;20244;-83
2024/03/23 04:10:14;;;;;;;11.23;1.60;;;;;;;;;;5092525;28;20216;-83
2024/03/23 04:12:41;;;;;;;11.10;2.30;;;;;;;;;;5092370;28;20288;-82
2024/03/23 04:15:08;;;;;;;8.53;2.10;;;;;;;;;;5092208;28;20736;-83
2024/03/23 04:17:34;;;;;;;8.90;1.97;;;;;;;;;;5092871;28;20235;-83
2024/03/23 04:20:02;;;;;;;7.77;1.57;;;;;;;;;;5092096;28;20210;-82
2024/03/23 04:22:29;;;;;;;11.70;1.90;;;;;;;;;;5092225;28;20200;-83
2024/03/23 04:24:58;;;;;;;8.97;2.30;;;;;;;;;;5092358;28;20321;-83
2024/03/23 04:27:24;;;;;;;7.23;2.10;;;;;;;;;;5091990;28;20320;-83
2024/03/23 04:29:51;;;;;;;11.13;1.97;;;;;;;;;;5092023;28;20737;-83
2024/03/23 04:32:18;;;;;;;12.07;2.63;;;;;;;;;;5092170;28;20298;-83
2024/03/23 04:34:45;;;;;;;12.27;2.57;;;;;;;;;;5090952;28;20210;-83
2024/03/23 04:37:13;;;;;;;9.60;2.47;;;;;;;;;;5091518;28;20236;-83
2024/03/23 04:39:40;;;;;;;10.53;2.13;;;;;;;;;;5092361;28;20224;-83
2024/03/23 04:42:08;;;;;;;11.27;2.03;;;;;;;;;;5091923;28;20206;-82
2024/03/23 04:44:36;;;;;;;14.97;2.90;;;;;;;;;;5092127;28;20289;-84
2024/03/23 04:47:03;;;;;;;12.23;3.87;;;;;;;;;;5091618;28;20265;-82
2024/03/23 04:49:30;;;;;;;14.77;3.03;;;;;;;;;;5091137;28;20232;-83
2024/03/23 04:51:58;;;;;;;9.37;2.40;;;;;;;;;;5092140;28;20228;-83
2024/03/23 04:54:25;;;;;;;9.17;2.17;;;;;;;;;;5091344;28;20234;-83
2024/03/23 04:56:52;;;;;;;9.80;2.30;;;;;;;;;;5091781;28;20277;-83
2024/03/23 04:59:20;;;;;;;11.37;2.73;;;;;;;;;;5091827;28;20236;-83
2024/03/23 05:01:47;;;;;;;15.20;3.23;;;;;;;;;;5091673;28;20202;-83
2024/03/23 05:04:13;;;;;;;13.53;2.50;;;;;;;;;;5091391;28;20287;-83
2024/03/23 05:06:41;;;;;;;14.17;3.20;;;;;;;;;;5090987;28;20228;-82
2024/03/23 05:09:07;;;;;;;11.00;2.63;;;;;;;;;;5091786;28;20285;-82
2024/03/23 05:11:35;;;;;;;9.20;1.83;;;;;;;;;;5091605;28;20205;-83
2024/03/23 05:14:02;;;;;;;11.37;1.93;;;;;;;;;;5091422;28;20303;-83
2024/03/23 05:16:31;;;;;;;12.87;2.50;;;;;;;;;;5090775;28;20204;-83
2024/03/23 05:18:58;;;;;;;8.23;2.10;;;;;;;;;;5091628;28;20232;-83
2024/03/23 05:21:25;;;;;;;11.10;2.07;;;;;;;;;;5091289;28;20196;-83
2024/03/23 05:23:52;;;;;;;11.80;2.40;;;;;;;;;;5090917;28;20236;-83
2024/03/23 05:26:18;;;;;;;11.57;2.30;;;;;;;;;;5091557;28;20232;-82
2024/03/23 05:28:45;;;;;;;16.00;2.80;;;;;;;;;;5091153;28;20723;-82
2024/03/23 05:31:12;;;;;;;12.83;2.37;;;;;;;;;;5091146;28;20229;-83
2024/03/23 05:33:40;;;;;;;8.03;1.83;;;;;;;;;;5091386;28;20204;-83
2024/03/23 05:36:11;;;;;;;7.27;2.10;;;;;;;;;;5090815;28;20203;-83
2024/03/23 05:38:38;;;;;;;13.53;2.67;;;;;;;;;;5090987;28;20283;-82
2024/03/23 05:41:05;;;;;;;12.93;2.50;;;;;;;;;;5091091;28;20192;-83
2024/03/23 05:43:32;;;;;;;9.67;2.17;;;;;;;;;;5091215;28;20197;-82
2024/03/23 05:45:59;;;;;;;18.27;2.17;;;;;;;;;;5092953;28;20201;-83
2024/03/23 05:48:27;;;;;;;14.90;2.53;;;;;;;;;;5095056;28;20263;-83
2024/03/23 05:50:54;;;;;;;9.13;2.70;;;;;;;;;;5095322;28;20196;-83
2024/03/23 05:53:22;;;;;;;8.33;2.33;;;;;;;;;;5095044;28;20207;-83
2024/03/23 05:55:48;;;;;;;12.17;2.43;;;;;;;;;;5095074;28;20207;-82
2024/03/23 05:58:16;;;;;;;10.63;2.30;;;;;;;;;;5094863;28;20251;-82
2024/03/23 06:00:42;;;;;;;9.37;2.80;;;;;;;;;;5095022;28;20282;-83
2024/03/23 06:03:10;;;;;;;9.97;2.33;;;;;;;;;;5094901;28;20227;-82
2024/03/23 06:05:36;;;;;;;5.57;1.83;;;;;;;;;;5094633;28;20290;-82
2024/03/23 06:08:06;;;;;;;9.13;2.00;;;;;;;;;;5093591;28;20239;-83
2024/03/23 06:10:32;;;;;;;5.47;1.40;;;;;;;;;;5095384;28;20209;-83
2024/03/23 06:12:59;;;;;;;7.10;1.70;;;;;;;;;;5094503;28;20602;-82
2024/03/23 06:15:27;;;;;;;5.83;1.47;;;;;;;;;;5094410;28;20914;-83
2024/03/23 06:17:54;;;;;;;7.70;2.00;;;;;;;;;;5095178;28;20605;-83
2024/03/23 06:20:20;;;;;;;8.97;1.33;;;;;;;;;;5093632;28;20289;-83
2024/03/23 06:22:48;;;;;;;8.90;1.93;;;;;;;;;;5094267;28;20743;-82
2024/03/23 06:25:16;;;;;;;9.83;1.60;;;;;;;;;;5094328;28;20359;-83
2024/03/23 06:27:43;;;;;;;11.27;2.17;;;;;;;;;;5094466;28;20256;-83
2024/03/23 06:30:10;;;;;;;7.97;1.67;;;;;;;;;;5094326;28;20284;-83
2024/03/23 06:32:37;;;;;;;10.60;2.10;;;;;;;;;;5094448;28;20201;-83
2024/03/23 06:35:08;;;;;;;11.23;2.40;;;;;;;;;;5094441;28;20622;-82
2024/03/23 06:37:35;;;;;;;10.13;2.90;;;;;;;;;;5094507;28;20282;-82
2024/03/23 06:40:01;;;;;;;12.03;2.90;;;;;;;;;;5094628;28;20847;-83
2024/03/23 06:42:30;;;;;;;8.60;2.10;;;;;;;;;;5094244;28;20205;-82
2024/03/23 06:44:56;;;;;;;8.03;2.37;;;;;;;;;;5093842;28;20221;-82
2024/03/23 06:47:25;;;;;;;10.53;2.60;;;;;;;;;;5093129;28;20774;-82
2024/03/23 06:49:51;;;;;;;11.53;2.97;;;;;;;;;;5094026;28;20293;-83
2024/03/23 06:52:18;;;;;;;8.70;2.20;;;;;;;;;;5094312;28;20689;-80
2024/03/23 06:54:45;;;;;;;7.80;2.20;;;;;;;;;;5093819;28;20627;-82
2024/03/23 06:57:12;;;;;;;11.17;2.27;;;;;;;;;;5093483;28;20735;-83
2024/03/23 06:59:40;;;;;;;5.93;1.80;;;;;;;;;;5094018;28;20197;-82
2024/03/23 07:02:08;;;;;;;5.50;1.80;;;;;;;;;;5093699;28;20584;-83
2024/03/23 07:04:34;;;;;;;6.97;2.20;;;;;;;;;;5093755;28;20190;-82
2024/03/23 07:07:02;;;;;;;6.27;1.40;;;;;;;;;;5093878;28;20309;-83
2024/03/23 07:09:28;;;;;;;6.43;1.90;;;;;;;;;;5093718;28;20198;-83
2024/03/23 07:11:56;;;;;;;5.30;1.60;;;;;;;;;;5093748;28;20663;-83
2024/03/23 07:14:22;;;;;;;4.73;1.70;;;;;;;;;;5093247;28;20290;-82
2024/03/23 07:16:51;;;;;;;4.50;1.40;;;;;;;;;;5093850;28;20674;-83
2024/03/23 07:19:17;;;;;;;4.43;1.20;;;;;;;;;;5093627;28;20289;-83
2024/03/23 07:21:45;;;;;;;6.70;1.77;;;;;;;;;;5093540;28;20198;-83
2024/03/23 07:24:11;;;;;;;4.90;1.30;;;;;;;;;;5092922;28;20321;-83
2024/03/23 07:26:38;;;;;;;6.37;1.60;;;;;;;;;;5093012;28;20644;-83
2024/03/23 07:29:05;;;;;;;6.17;1.47;;;;;;;;;;5093251;28;20321;-82
2024/03/23 07:31:32;;;;;;;5.40;1.20;;;;;;;;;;5093292;28;20599;-83
2024/03/23 07:33:59;;;;;;;3.30;1.10;;;;;;;;;;5093333;28;20237;-84
2024/03/23 07:36:27;;;;;;;5.07;1.30;;;;;;;;;;5093065;28;20671;-84
2024/03/23 07:38:53;;;;;;;5.77;1.60;;;;;;;;;;5092858;28;20294;-83
2024/03/23 07:41:21;;;;;;;4.60;0.90;;;;;;;;;;5093163;28;20222;-84
2024/03/23 07:43:48;;;;;;;4.83;1.10;;;;;;;;;;5093273;28;20282;-83
2024/03/23 07:46:16;;;;;;;4.60;0.93;;;;;;;;;;5093760;28;20568;-84
2024/03/23 07:48:42;;;;;;;5.43;1.50;;;;;;;;;;5092399;28;20419;-83
2024/03/23 07:51:11;;;;;;;9.43;2.20;;;;;;;;;;5092801;28;20198;-82
2024/03/23 07:53:38;;;;;;;8.87;1.70;;;;;;;;;;5092858;28;20667;-83
2024/03/23 07:56:08;;;;;;;3.80;1.40;;;;;;;;;;5092114;28;20206;-82
2024/03/23 07:58:34;;;;;;;7.97;1.73;;;;;;;;;;5092556;28;20210;-83
2024/03/23 08:01:07;;;;;;;4.78;1.67;;;;;;;;;;5092573;28;20293;-82
2024/03/23 08:03:34;;;;;;;3.90;1.50;;;;;;;;;;5092966;28;20229;-81
2024/03/23 08:06:08;;;;;;;3.67;1.42;;;;;;;;;;5092530;28;20204;-82
2024/03/23 08:08:36;;;;;;;7.05;2.03;;;;;;;;;;5091437;28;20699;-81
2024/03/23 08:11:03;;;;;;;5.97;1.90;;;;;;;;;;5092276;28;20194;-81
2024/03/23 08:13:30;;;;;;;6.30;2.20;;;;;;;;;;5092474;28;20213;-81
2024/03/23 08:15:58;;;;;;;6.35;2.42;;;;;;;;;;5092467;28;20220;-81
2024/03/23 08:18:24;;;;;;;6.20;1.60;;;;;;;;;;5092146;28;20286;-82
2024/03/23 08:21:00;;;;;;;4.03;1.50;;;;;;;;;;5092107;28;20685;-80
2024/03/23 08:23:28;;;;;;;4.75;1.70;;;;;;;;;;5091575;28;20238;-81
2024/03/23 08:26:00;;;;;;;4.32;1.20;;;;;;;;;;5090665;28;20187;-81
2024/03/23 08:28:27;;;;;;;5.60;1.77;;;;;;;;;;5091524;28;20667;-81
2024/03/23 08:30:54;;;;;;;4.30;1.40;;;;;;;;;;5091873;28;20210;-81
2024/03/23 08:33:21;;;;;;;6.18;1.40;;;;;;;;;;5092204;28;20305;-81
2024/03/23 08:35:55;;;;;;;4.47;1.30;;;;;;;;;;5091559;28;20205;-81
2024/03/23 08:38:21;;;;;;;5.20;1.27;;;;;;;;;;5108255;28;20205;-81
2024/03/23 08:40:49;;;;;;;6.57;1.70;;;;;;;;;;5111483;28;20684;-81
2024/03/23 08:43:16;;;;;;;4.90;1.20;;;;;;;;;;5099142;28;20569;-81
2024/03/23 08:45:43;;;;;;;5.18;1.50;;;;;;;;;;5091818;28;20201;-81
2024/03/23 08:48:10;;;;;;;5.57;1.50;;;;;;;;;;5099011;28;20773;-82
2024/03/23 08:50:37;;;;;;;5.15;1.48;;;;;;;;;;5096071;28;20202;-82
2024/03/23 08:53:04;;;;;;;5.20;1.55;;;;;;;;;;5096506;28;20225;-82
2024/03/23 08:55:31;;;;;;;4.68;1.30;;;;;;;;;;5098746;28;20198;-82
2024/03/23 08:57:57;;;;;;;7.00;1.80;;;;;;;;;;5091169;28;20190;-82
2024/03/23 09:00:26;;;;;;;4.22;1.45;;;;;;;;;;5091659;28;20198;-82
2024/03/23 09:02:53;;;;;;;5.40;1.33;;;;;;;;;;5091513;28;20738;-81
2024/03/23 09:05:21;;;;;;;5.13;1.50;;;;;;;;;;5105755;28;20276;-82
2024/03/23 09:07:47;;;;;;;4.30;1.23;;;;;;;;;;5087694;28;20221;-84
2024/03/23 09:10:14;;;;;;;6.03;1.92;;;;;;;;;;5090076;28;20288;-82
2024/03/23 09:12:40;;;;;;;7.20;2.00;;;;;;;;;;5085397;28;20671;-80
2024/03/23 09:15:08;;;;;;;6.25;1.70;;;;;;;;;;5084739;28;20202;-83
2024/03/23 09:17:36;;;;;;;8.80;2.30;;;;;;;;;;5091309;28;20270;-83
2024/03/23 09:20:04;;;;;;;6.60;1.70;;;;;;;;;;5083728;28;20198;-84
2024/03/23 09:22:30;;;;;;;6.88;1.77;;;;;;;;;;5098056;28;20194;-83
2024/03/23 09:24:57;;;;;;;8.80;2.05;;;;;;;;;;5109698;28;20652;-83
2024/03/23 09:27:24;;;;;;;6.65;1.58;;;;;;;;;;5094198;28;20293;-83
2024/03/23 09:29:51;;;;;;;7.68;1.80;;;;;;;;;;5094975;28;20569;-82
2024/03/23 09:32:17;;;;;;;7.80;1.55;;;;;;;;;;5094840;28;20272;-83
2024/03/23 09:34:46;;;;;;;6.55;1.48;;;;;;;;;;5077722;28;20195;-81
2024/03/23 09:37:12;;;;;;;5.80;1.42;;;;;;;;;;5079222;28;20230;-82
2024/03/23 09:39:39;;;;;;;6.78;1.63;;;;;;;;;;5074224;28;20205;-83
2024/03/23 09:42:06;;;;;;;7.25;1.48;;;;;;;;;;5089796;28;20278;-79
2024/03/23 09:44:34;;;;;;;5.70;1.50;;;;;;;;;;5091178;28;20256;-80
2024/03/23 09:47:00;;;;;;;5.32;1.35;;;;;;;;;;5081928;28;20285;-83
2024/03/23 09:49:27;;;;;;;5.38;1.60;;;;;;;;;;5088328;28;20257;-80
2024/03/23 09:51:55;;;;;;;6.50;1.70;;;;;;;;;;5081745;28;20525;-78
2024/03/23 09:54:22;;;;;;;7.60;1.38;;;;;;;;;;5089891;28;20212;-82
2024/03/23 09:56:49;;;;;;;5.57;1.60;;;;;;;;;;5090844;28;20259;-80
2024/03/23 09:59:16;;;;;;;5.05;1.30;;;;;;;;;;5097098;28;20722;-77
2024/03/23 10:01:42;;;;;;;3.95;1.40;;;;;;;;;;5090049;28;20204;-79
2024/03/23 10:04:09;;;;;;;5.20;1.27;;;;;;;;;;5090113;28;20239;-78
2024/03/23 10:06:36;;;;;;;8.82;1.73;;;;;;;;;;5089698;28;20191;-81
2024/03/23 10:09:18;;;;;;;5.75;1.63;;;;;;;;;;5089448;28;20459;-77
2024/03/23 10:11:48;;;;;;;7.35;1.70;;;;;;;;;;5090950;28;20201;-78
2024/03/23 10:14:30;;;;;;;4.63;1.30;;;;;;;;;;5085749;28;20206;-76
2024/03/23 10:17:12;;;;;;;6.07;1.80;;;;;;;;;;5088414;28;20233;-77
2024/03/23 10:19:40;;;;;;;6.57;1.83;;;;;;;;;;5088419;28;20198;-78
2024/03/23 10:22:07;;;;;;;8.25;1.90;;;;;;;;;;5090058;28;20194;-77
2024/03/23 10:24:35;;;;;;;6.35;1.52;;;;;;;;;;5089780;28;20224;-78
2024/03/23 10:27:02;;;;;;;8.43;2.08;;;;;;;;;;5090563;28;20700;-77
2024/03/23 10:29:29;;;;;;;8.18;1.83;;;;;;;;;;5090140;28;20230;-77
2024/03/23 10:32:07;;;;;;;7.50;1.80;;;;;;;;;;5091505;28;20252;-76
2024/03/23 10:34:35;;;;;;;7.70;1.75;;;;;;;;;;5093913;28;20259;-77
2024/03/23 10:37:02;;;;;;;4.78;1.70;;;;;;;;;;5093877;28;20282;-77
2024/03/23 10:39:30;;;;;;;8.80;1.55;;;;;;;;;;5093750;28;20745;-82
2024/03/23 10:41:58;;;;;;;8.00;1.85;;;;;;;;;;5094251;28;20574;-78
2024/03/23 10:44:29;;;;;;;8.85;1.50;;;;;;;;;;5093875;28;20194;-79
2024/03/23 10:46:58;;;;;;;5.78;1.50;;;;;;;;;;5093639;28;20198;-77
2024/03/23 10:49:26;;;;;;;5.60;1.20;;;;;;;;;;5093445;28;20225;-77
2024/03/23 10:51:53;;;;;;;6.43;1.35;;;;;;;;;;5093505;28;20195;-78
2024/03/23 10:54:20;;;;;;;7.55;1.50;;;;;;;;;;5093537;28;20629;-80
2024/03/23 10:56:47;;;;;;;5.97;1.63;;;;;;;;;;5093552;28;20679;-80
2024/03/23 10:59:16;;;;;;;8.20;1.80;;;;;;;;;;5093786;28;20580;-81
2024/03/23 11:01:55;;;;;;;9.38;1.98;;;;;;;;;;5093735;28;20273;-81
2024/03/23 11:04:31;;;;;;;5.60;1.75;;;;;;;;;;5093128;28;20199;-78
2024/03/23 11:06:57;;;;;;;5.53;1.73;;;;;;;;;;5093683;28;20190;-80
2024/03/23 11:09:45;;;;;;;5.20;1.60;;;;;;;;;;5093584;28;20230;-80
2024/03/23 11:12:26;;;;;;;5.18;1.38;;;;;;;;;;5093836;28;20194;-80
2024/03/23 11:14:56;;;;;;;7.22;1.45;;;;;;;;;;5073001;28;20203;-81
2024/03/23 11:17:23;;;;;;;7.95;1.85;;;;;;;;;;5083986;28;20248;-80
2024/03/23 11:19:57;;;;;;;5.40;1.20;;;;;;;;;;5093009;28;20271;-80
2024/03/23 11:22:38;;;;;;;4.78;1.40;;;;;;;;;;5093240;28;20197;-79
2024/03/23 11:25:13;;;;;;;6.32;1.80;;;;;;;;;;5090570;28;20241;-81
2024/03/23 11:27:39;;;;;;;4.28;1.10;;;;;;;;;;5093461;28;20289;-81
2024/03/23 11:30:15;;;;;;;6.57;1.30;;;;;;;;;;5092984;28;20214;-80
2024/03/23 11:32:42;;;;;;;3.70;1.30;;;;;;;;;;5092425;28;20755;-80
2024/03/23 11:35:10;;;;;;;6.90;1.40;;;;;;;;;;5092446;28;20206;-80
2024/03/23 11:37:37;;;;;;;4.90;1.20;;;;;;;;;;5093109;28;20785;-81
2024/03/23 11:40:18;;;;;;;6.78;1.33;;;;;;;;;;5092629;28;20649;-81
2024/03/23 11:42:44;;;;;;;6.35;1.38;;;;;;;;;;5093096;28;20198;-80
2024/03/23 11:45:12;;;;;;;5.80;1.67;;;;;;;;;;5092574;28;20237;-80
2024/03/23 11:47:39;;;;;;;3.70;1.10;;;;;;;;;;5092542;28;20286;-80
2024/03/23 11:50:07;;;;;;;5.22;1.25;;;;;;;;;;5091988;28;20552;-81
2024/03/23 11:52:33;;;;;;;12.10;1.67;;;;;;;;;;5092859;28;20281;-79
2024/03/23 11:55:05;;;;;;;6.03;1.30;;;;;;;;;;5092646;28;20294;-79
2024/03/23 11:57:31;;;;;;;6.50;1.13;;;;;;;;;;5092522;28;20693;-79
2024/03/23 11:59:58;;;;;;;7.68;1.30;;;;;;;;;;5092641;28;20297;-80
2024/03/23 12:02:24;;;;;;;5.18;0.98;;;;;;;;;;5092366;28;20290;-80
2024/03/23 12:04:54;;;;;;;2.47;0.60;;;;;;;;;;5092409;28;20226;-79
2024/03/23 12:07:21;;;;;;;5.20;1.35;;;;;;;;;;5092846;28;20798;-79
2024/03/23 12:09:49;;;;;;;5.45;1.38;;;;;;;;;;5092577;28;20709;-79
2024/03/23 12:12:16;;;;;;;5.15;1.10;;;;;;;;;;5092403;28;20190;-81
2024/03/23 12:14:43;;;;;;;6.50;1.95;;;;;;;;;;5092225;28;20199;-80
2024/03/23 12:17:10;;;;;;;5.10;1.20;;;;;;;;;;5090675;28;20320;-79
2024/03/23 12:19:37;;;;;;;4.90;1.00;;;;;;;;;;5092578;28;20209;-80
2024/03/23 12:22:06;;;;;;;2.70;0.80;;;;;;;;;;5093111;28;20292;-81
2024/03/23 12:24:35;;;;;;;4.67;1.03;;;;;;;;;;5085037;28;20230;-80
2024/03/23 12:27:01;;;;;;;5.20;1.10;;;;;;;;;;5092483;28;20566;-80
2024/03/23 12:29:30;;;;;;;7.90;1.40;;;;;;;;;;5092219;28;20237;-79
2024/03/23 12:31:57;;;;;;;4.88;1.10;;;;;;;;;;5091587;28;20675;-80
2024/03/23 12:34:24;;;;;;;2.85;0.95;;;;;;;;;;5092353;28;20289;-79
2024/03/23 12:36:50;;;;;;;5.53;1.10;;;;;;;;;;5090113;28;20238;-79
2024/03/23 12:39:20;;;;;;;5.88;1.50;;;;;;;;;;5091261;28;20690;-80
2024/03/23 12:41:46;;;;;;;4.15;1.33;;;;;;;;;;5091564;28;20187;-80
2024/03/23 12:44:15;;;;;;;6.40;1.38;;;;;;;;;;5091081;28;20226;-80
2024/03/23 12:46:41;;;;;;;4.57;1.07;;;;;;;;;;5087614;28;20297;-80
2024/03/23 12:49:08;;;;;;;5.43;1.33;;;;;;;;;;5090662;28;20336;-79
2024/03/23 12:51:35;;;;;;;4.83;0.83;;;;;;;;;;5087812;28;20259;-79
2024/03/23 12:54:02;;;;;;;5.27;1.20;;;;;;;;;;5087659;28;20195;-79
2024/03/23 12:56:30;;;;;;;6.93;1.20;;;;;;;;;;5091411;28;20244;-79
2024/03/23 12:58:57;;;;;;;5.23;1.10;;;;;;;;;;5091221;28;20565;-80
2024/03/23 13:01:24;;;;;;;5.00;1.10;;;;;;;;;;5090168;28;20212;-79
2024/03/23 13:03:51;;;;;;;5.20;0.90;;;;;;;;;;5091276;28;20195;-80
2024/03/23 13:06:18;;;;;;;4.07;0.90;;;;;;;;;;5091390;28;20221;-80
2024/03/23 13:08:46;;;;;;;5.37;1.30;;;;;;;;;;5090442;28;20214;-80
2024/03/23 13:11:13;;;;;;;3.80;0.90;;;;;;;;;;5091196;28;20190;-80
2024/03/23 13:13:42;;;;;;;4.77;1.00;;;;;;;;;;5089136;28;20217;-80
2024/03/23 13:16:08;;;;;;;5.07;1.23;;;;;;;;;;5090423;28;20237;-80
2024/03/23 13:18:35;;;;;;;6.93;1.30;;;;;;;;;;5090725;28;20198;-80
2024/03/23 13:21:02;;;;;;;5.27;1.20;;;;;;;;;;5090595;28;20666;-80
2024/03/23 13:23:30;;;;;;;2.93;1.00;;;;;;;;;;5090525;28;20195;-78
2024/03/23 13:25:56;;;;;;;3.97;1.13;;;;;;;;;;5090342;28;20217;-79
2024/03/23 13:28:24;;;;;;;3.63;1.10;;;;;;;;;;5090137;28;20694;-80
2024/03/23 13:30:52;;;;;;;4.33;1.30;;;;;;;;;;5089483;28;20233;-80
2024/03/23 13:33:19;;;;;;;5.07;1.05;;;;;;;;;;5090637;28;20679;-79
2024/03/23 13:35:51;;;;;;;4.30;1.02;;;;;;;;;;5091546;28;20222;-79
2024/03/23 13:38:18;;;;;;;4.93;1.60;;;;;;;;;;5090770;28;20206;-80
2024/03/23 13:40:54;;;;;;;4.70;1.00;;;;;;;;;;5091143;28;20240;-80
2024/03/23 13:43:21;;;;;;;4.78;1.33;;;;;;;;;;5091109;28;20234;-82
2024/03/23 13:45:48;;;;;;;4.63;1.20;;;;;;;;;;5091020;28;20262;-77
2024/03/23 13:48:16;;;;;;;4.78;1.10;;;;;;;;;;5091039;28;20567;-78
2024/03/23 13:50:43;;;;;;;3.75;1.00;;;;;;;;;;5090097;28;20202;-77
2024/03/23 13:53:10;;;;;;;5.78;1.17;;;;;;;;;;5090726;28;20198;-78
2024/03/23 13:55:36;;;;;;;4.70;1.08;;;;;;;;;;5091439;28;20609;-77
2024/03/23 13:58:04;;;;;;;5.18;1.38;;;;;;;;;;5091501;28;20285;-77
2024/03/23 14:00:32;;;;;;;6.77;1.17;;;;;;;;;;5090653;28;20277;-77
2024/03/23 14:02:59;;;;;;;5.70;1.03;;;;;;;;;;5091485;28;20198;-77
2024/03/23 14:05:27;;;;;;;6.37;1.80;;;;;;;;;;5091339;28;20310;-77
2024/03/23 14:07:54;;;;;;;3.67;0.90;;;;;;;;;;5093848;28;20199;-77
2024/03/23 14:10:20;;;;;;;5.30;1.30;;;;;;;;;;5095010;28;20321;-77
2024/03/23 14:12:47;;;;;;;4.63;0.97;;;;;;;;;;5094795;28;20225;-76
2024/03/23 14:15:14;;;;;;;3.90;0.90;;;;;;;;;;5094257;28;20278;-78
2024/03/23 14:17:41;;;;;;;6.60;1.17;;;;;;;;;;5095199;28;20194;-78
2024/03/23 14:20:11;;;;;;;5.50;1.00;;;;;;;;;;5095268;28;20293;-78
2024/03/23 14:22:41;;;;;;;4.50;1.23;;;;;;;;;;5094951;28;20194;-79
2024/03/23 14:25:07;;;;;;;3.63;1.10;;;;;;;;;;5094228;28;20313;-78
2024/03/23 14:27:37;;;;;;;2.80;0.60;;;;;;;;;;5094013;28;20577;-77
2024/03/23 14:30:03;;;;;;;4.80;0.90;;;;;;;;;;5094640;28;20226;-77
2024/03/23 14:32:33;;;;;;;4.07;0.73;;;;;;;;;;5095077;28;20579;-78
2024/03/23 14:35:00;;;;;;;1.57;0.57;;;;;;;;;;5094618;28;20626;-76
2024/03/23 14:37:27;;;;;;;1.97;0.50;;;;;;;;;;5094404;28;20210;-78
2024/03/23 14:39:56;;;;;;;1.00;0.40;;;;;;;;;;5094457;28;20206;-77
2024/03/23 14:42:23;;;;;;;2.40;0.50;;;;;;;;;;5094085;28;20204;-76